Time;durP1;ratioP1;P1;durP2;ratioP2;P2;SDS_P1;SDS_P2;PMS_P1;PMS_P2;Temp;Humidity;BMP_temperature;BMP_pressure;BME280_temperature;BME280_humidity;BME280_pressure;Samples;Min_cycle;Max_cycle;Signal;HPM_P1;HPM_P2
2023/12/24 00:01:00;;;;;;;3.60;2.40;;;;;9.80;100148.00;;;;5044186;28;20692;-71
2023/12/24 00:03:48;;;;;;;5.27;2.90;;;;;9.80;100150.00;;;;5042901;28;20255;-69
2023/12/24 00:06:34;;;;;;;3.80;2.90;;;;;9.80;100143.00;;;;5044709;28;20236;-68
2023/12/24 00:09:20;;;;;;;6.63;2.80;;;;;9.80;100134.00;;;;5038711;28;20228;-68
2023/12/24 00:12:07;;;;;;;7.03;3.00;;;;;9.80;100130.00;;;;5038120;28;20270;-68
2023/12/24 00:14:54;;;;;;;8.20;3.30;;;;;9.80;100126.00;;;;5033696;28;20257;-68
2023/12/24 00:17:41;;;;;;;4.87;2.80;;;;;9.80;100122.00;;;;5041854;28;20451;-68
2023/12/24 00:20:28;;;;;;;4.83;3.00;;;;;9.80;100130.00;;;;5044802;28;20244;-69
2023/12/24 00:23:14;;;;;;;4.87;3.20;;;;;9.80;100123.00;;;;5040095;28;20224;-68
2023/12/24 00:26:01;;;;;;;3.50;3.10;;;;;9.80;100119.00;;;;5041252;28;20303;-69
2023/12/24 00:28:49;;;;;;;7.03;3.50;;;;;9.80;100132.00;;;;5042375;28;20264;-68
2023/12/24 00:31:35;;;;;;;9.80;3.90;;;;;9.80;100123.00;;;;5045200;28;20252;-69
2023/12/24 00:34:21;;;;;;;10.10;4.07;;;;;9.90;100128.00;;;;5045078;28;20229;-69
2023/12/24 00:37:09;;;;;;;6.60;3.60;;;;;9.90;100140.00;;;;5042113;28;20236;-69
2023/12/24 00:39:55;;;;;;;4.40;2.90;;;;;9.90;100132.00;;;;5044752;28;20233;-68
2023/12/24 00:42:42;;;;;;;7.23;3.67;;;;;9.90;100143.00;;;;5041658;28;20244;-70
2023/12/24 00:45:29;;;;;;;4.37;3.37;;;;;9.90;100127.00;;;;5038105;28;20309;-68
2023/12/24 00:48:15;;;;;;;5.50;3.53;;;;;9.90;100130.00;;;;5044048;28;20236;-68
2023/12/24 00:51:04;;;;;;;5.33;3.57;;;;;10.00;100136.00;;;;5038283;28;20322;-69
2023/12/24 00:53:51;;;;;;;4.67;3.07;;;;;10.00;100105.00;;;;5044832;28;20287;-69
2023/12/24 00:56:38;;;;;;;5.00;3.63;;;;;10.00;100124.00;;;;5042862;28;20612;-69
2023/12/24 00:59:24;;;;;;;7.80;3.33;;;;;10.00;100128.00;;;;5045619;28;20232;-69
2023/12/24 01:02:10;;;;;;;8.40;4.00;;;;;10.00;100118.00;;;;5048537;28;20287;-69
2023/12/24 01:04:57;;;;;;;6.20;3.40;;;;;10.10;100113.00;;;;5050623;28;20269;-69
2023/12/24 01:07:43;;;;;;;6.63;3.40;;;;;10.00;100104.00;;;;5044095;28;20237;-68
2023/12/24 01:10:31;;;;;;;9.93;3.70;;;;;10.00;100115.00;;;;5045731;28;20310;-69
2023/12/24 01:13:19;;;;;;;5.40;3.60;;;;;10.00;100103.00;;;;5032981;28;20232;-68
2023/12/24 01:16:06;;;;;;;4.47;3.17;;;;;10.00;100104.00;;;;5036813;28;20825;-68
2023/12/24 01:18:52;;;;;;;4.90;3.13;;;;;10.10;100100.00;;;;5044377;28;20740;-68
2023/12/24 01:21:39;;;;;;;4.87;3.30;;;;;10.10;100100.00;;;;5041927;28;20756;-68
2023/12/24 01:24:26;;;;;;;8.43;3.60;;;;;10.10;100095.00;;;;5036926;28;20905;-68
2023/12/24 01:27:13;;;;;;;6.47;4.00;;;;;10.10;100086.00;;;;5036252;28;20765;-67
2023/12/24 01:29:59;;;;;;;6.30;4.43;;;;;10.20;100089.00;;;;5037190;28;20612;-69
2023/12/24 01:32:46;;;;;;;6.90;3.60;;;;;10.20;100080.00;;;;5040160;28;20268;-68
2023/12/24 01:35:33;;;;;;;8.00;4.23;;;;;10.20;100069.00;;;;5044554;28;20924;-69
2023/12/24 01:38:19;;;;;;;4.50;3.37;;;;;10.20;100081.00;;;;5039125;28;20314;-71
2023/12/24 01:41:05;;;;;;;5.83;3.17;;;;;10.20;100084.00;;;;5039616;28;20793;-65
2023/12/24 01:43:53;;;;;;;3.90;2.80;;;;;10.20;100082.00;;;;5037544;28;20670;-70
2023/12/24 01:46:40;;;;;;;5.43;2.63;;;;;10.20;100088.00;;;;5038843;28;20248;-68
2023/12/24 01:49:26;;;;;;;5.13;2.83;;;;;10.20;100082.00;;;;5039276;28;20367;-67
2023/12/24 01:52:13;;;;;;;4.47;2.83;;;;;10.20;100083.00;;;;5041964;28;20291;-69
2023/12/24 01:55:00;;;;;;;6.40;3.20;;;;;10.20;100067.00;;;;5040451;28;20228;-68
2023/12/24 01:57:47;;;;;;;5.13;2.97;;;;;10.20;100076.00;;;;5043141;28;20256;-71
2023/12/24 02:00:35;;;;;;;4.97;2.87;;;;;10.20;100073.00;;;;5044681;28;20228;-71
2023/12/24 02:03:21;;;;;;;3.83;2.43;;;;;10.20;100066.00;;;;5041275;28;20217;-71
2023/12/24 02:06:09;;;;;;;12.47;3.00;;;;;10.20;100055.00;;;;5042167;28;20224;-69
2023/12/24 02:08:57;;;;;;;4.50;3.27;;;;;10.20;100041.00;;;;5042078;28;20244;-66
2023/12/24 02:11:43;;;;;;;2.97;2.67;;;;;10.20;100046.00;;;;5041599;28;20240;-70
2023/12/24 02:14:30;;;;;;;3.30;2.60;;;;;10.30;100038.00;;;;5037791;28;20229;-69
2023/12/24 02:17:18;;;;;;;4.27;2.97;;;;;10.30;100038.00;;;;5036758;28;20237;-68
2023/12/24 02:20:06;;;;;;;3.80;2.80;;;;;10.30;100055.00;;;;5033465;28;20280;-68
2023/12/24 02:22:53;;;;;;;6.47;2.60;;;;;10.30;100048.00;;;;5038368;28;20749;-69
2023/12/24 02:25:40;;;;;;;5.53;2.50;;;;;10.30;100042.00;;;;5035818;28;20232;-67
2023/12/24 02:28:27;;;;;;;2.63;1.83;;;;;10.30;100048.00;;;;5039602;28;20741;-68
2023/12/24 02:31:17;;;;;;;4.50;2.10;;;;;10.30;100044.00;;;;5041034;28;20241;-69
2023/12/24 02:34:05;;;;;;;4.27;2.23;;;;;10.30;100045.00;;;;5038237;28;20228;-69
2023/12/24 02:36:52;;;;;;;3.30;2.03;;;;;10.30;100034.00;;;;5035467;28;20233;-68
2023/12/24 02:39:41;;;;;;;2.80;1.90;;;;;10.30;100053.00;;;;5027906;28;20300;-70
2023/12/24 02:42:28;;;;;;;2.77;1.73;;;;;10.30;100020.00;;;;5039741;28;20766;-68
2023/12/24 02:45:14;;;;;;;3.50;1.60;;;;;10.30;100022.00;;;;5023438;28;20220;-67
2023/12/24 02:48:01;;;;;;;3.73;1.40;;;;;10.30;100022.00;;;;5047840;28;20237;-65
2023/12/24 02:50:47;;;;;;;1.83;1.67;;;;;10.30;100016.00;;;;5040237;28;20310;-69
2023/12/24 02:53:33;;;;;;;1.93;1.67;;;;;10.20;100012.00;;;;5037896;28;20230;-68
2023/12/24 02:56:22;;;;;;;3.57;1.53;;;;;10.20;100012.00;;;;5032797;28;20742;-68
2023/12/24 02:59:09;;;;;;;3.00;1.67;;;;;10.20;100017.00;;;;5035467;28;20818;-68
2023/12/24 03:01:55;;;;;;;6.50;1.73;;;;;10.10;100009.00;;;;5042769;28;20603;-68
2023/12/24 03:04:41;;;;;;;1.37;1.27;;;;;10.10;100011.00;;;;5029468;28;20256;-68
2023/12/24 03:07:28;;;;;;;4.73;1.77;;;;;10.10;100017.00;;;;5042532;28;20228;-69
2023/12/24 03:10:14;;;;;;;2.97;1.40;;;;;10.00;100006.00;;;;5042387;28;20636;-68
2023/12/24 03:13:03;;;;;;;2.93;1.70;;;;;10.00;100013.00;;;;5042796;28;20598;-68
2023/12/24 03:15:49;;;;;;;5.47;1.43;;;;;10.00;100004.00;;;;5040246;28;20767;-68
2023/12/24 03:18:35;;;;;;;2.17;1.73;;;;;9.90;99995.00;;;;5043971;28;20259;-68
2023/12/24 03:21:22;;;;;;;1.87;1.63;;;;;9.80;99999.00;;;;5042905;28;20229;-68
2023/12/24 03:24:08;;;;;;;3.53;1.70;;;;;9.80;99988.00;;;;5032427;28;20294;-70
2023/12/24 03:26:55;;;;;;;2.70;1.50;;;;;9.80;99977.00;;;;5039081;28;20243;-69
2023/12/24 03:29:43;;;;;;;3.67;1.60;;;;;9.80;99985.00;;;;5031194;28;20364;-69
2023/12/24 03:32:29;;;;;;;1.93;1.27;;;;;9.90;99980.00;;;;5034651;28;20303;-69
2023/12/24 03:35:15;;;;;;;1.60;1.43;;;;;9.80;99984.00;;;;5036013;28;20224;-68
2023/12/24 03:38:02;;;;;;;5.20;1.77;;;;;9.80;99984.00;;;;5042229;28;20273;-69
2023/12/24 03:40:48;;;;;;;2.07;1.70;;;;;9.80;100007.00;;;;5041182;28;20291;-68
2023/12/24 03:43:35;;;;;;;4.07;1.70;;;;;9.70;99986.00;;;;5016316;28;20598;-69
2023/12/24 03:46:22;;;;;;;2.60;1.90;;;;;9.80;99980.00;;;;5031086;28;20224;-69
2023/12/24 03:49:10;;;;;;;1.57;1.47;;;;;9.80;99989.00;;;;5030467;28;20364;-68
2023/12/24 03:51:56;;;;;;;3.63;1.70;;;;;9.80;99984.00;;;;5045643;28;20375;-69
2023/12/24 03:54:43;;;;;;;1.77;1.40;;;;;9.80;99994.00;;;;5042271;28;20237;-68
2023/12/24 03:57:29;;;;;;;1.20;1.10;;;;;9.80;99985.00;;;;5046477;28;20232;-70
2023/12/24 04:00:16;;;;;;;2.47;1.73;;;;;9.80;99980.00;;;;5038702;28;20327;-68
2023/12/24 04:03:04;;;;;;;1.70;1.60;;;;;9.80;99970.00;;;;5029628;28;20237;-69
2023/12/24 04:05:51;;;;;;;4.20;2.10;;;;;9.80;99963.00;;;;5039597;28;20283;-68
2023/12/24 04:08:38;;;;;;;1.77;1.33;;;;;9.80;99968.00;;;;5046089;28;20236;-69
2023/12/24 04:11:25;;;;;;;2.30;1.83;;;;;9.80;99968.00;;;;5040053;28;20600;-68
2023/12/24 04:14:11;;;;;;;1.73;1.60;;;;;9.80;99960.00;;;;5038523;28;20737;-69
2023/12/24 04:16:58;;;;;;;3.87;1.40;;;;;9.80;99951.00;;;;5040836;28;20237;-68
2023/12/24 04:19:46;;;;;;;2.43;1.97;;;;;9.80;99954.00;;;;5042130;28;20825;-70
2023/12/24 04:22:32;;;;;;;1.60;1.50;;;;;9.80;99948.00;;;;5045361;28;20235;-68
2023/12/24 04:25:19;;;;;;;1.60;1.50;;;;;9.80;99932.00;;;;5040179;28;20662;-68
2023/12/24 04:28:06;;;;;;;4.97;1.67;;;;;9.90;99953.00;;;;5047049;28;20248;-68
2023/12/24 04:30:52;;;;;;;1.50;1.40;;;;;9.90;99950.00;;;;5037871;28;20925;-69
2023/12/24 04:33:38;;;;;;;1.70;1.60;;;;;9.90;99950.00;;;;5042061;28;20299;-69
2023/12/24 04:36:26;;;;;;;1.80;1.50;;;;;10.00;99936.00;;;;5039022;28;20307;-68
2023/12/24 04:39:13;;;;;;;1.57;1.40;;;;;9.90;99946.00;;;;5042791;28;20264;-68
2023/12/24 04:41:59;;;;;;;3.70;1.40;;;;;9.90;99942.00;;;;5042890;28;20223;-69
2023/12/24 04:44:46;;;;;;;1.40;1.30;;;;;10.00;99938.00;;;;5040796;28;20231;-68
2023/12/24 04:47:32;;;;;;;1.40;1.30;;;;;10.00;99937.00;;;;5038332;28;20236;-69
2023/12/24 04:50:19;;;;;;;3.03;1.70;;;;;10.00;99929.00;;;;5036405;28;20232;-71
2023/12/24 04:53:06;;;;;;;2.27;1.60;;;;;10.00;99923.00;;;;5044333;28;20290;-69
2023/12/24 04:55:55;;;;;;;1.80;1.20;;;;;10.00;99918.00;;;;5043770;28;20241;-69
2023/12/24 04:58:41;;;;;;;1.50;1.40;;;;;10.00;99913.00;;;;5040045;28;20237;-70
2023/12/24 05:01:28;;;;;;;1.40;1.30;;;;;10.10;99918.00;;;;5044002;28;20356;-68
2023/12/24 05:04:14;;;;;;;2.73;1.43;;;;;10.10;99930.00;;;;5044739;28;20233;-65
2023/12/24 05:07:00;;;;;;;1.00;1.00;;;;;10.10;99905.00;;;;5045619;28;20307;-69
2023/12/24 05:09:48;;;;;;;1.23;1.13;;;;;10.10;99907.00;;;;5034576;28;20236;-69
2023/12/24 05:12:34;;;;;;;1.00;1.00;;;;;10.10;99902.00;;;;5046954;28;20236;-68
2023/12/24 05:15:21;;;;;;;0.90;0.90;;;;;10.10;99893.00;;;;5031353;28;20224;-71
2023/12/24 05:18:07;;;;;;;1.00;1.00;;;;;10.10;99886.00;;;;5034996;28;20366;-65
2023/12/24 05:20:54;;;;;;;0.90;0.90;;;;;10.10;99891.00;;;;5047857;28;20244;-67
2023/12/24 05:23:41;;;;;;;1.23;1.13;;;;;10.10;99891.00;;;;5039269;28;20236;-69
2023/12/24 05:26:28;;;;;;;1.00;1.00;;;;;10.20;99886.00;;;;5038639;28;20236;-69
2023/12/24 05:29:15;;;;;;;0.80;0.80;;;;;10.20;99890.00;;;;5038842;28;20279;-67
2023/12/24 05:32:02;;;;;;;1.07;0.80;;;;;10.20;99876.00;;;;5040943;28;20229;-69
2023/12/24 05:34:48;;;;;;;0.80;0.80;;;;;10.20;99872.00;;;;5050733;28;20313;-68
2023/12/24 05:37:34;;;;;;;0.80;0.80;;;;;10.20;99882.00;;;;5038134;28;20236;-68
2023/12/24 05:40:21;;;;;;;0.80;0.80;;;;;10.20;99881.00;;;;5043881;28;20228;-69
2023/12/24 05:43:11;;;;;;;0.60;0.60;;;;;10.20;99875.00;;;;5038820;28;20292;-69
2023/12/24 05:45:57;;;;;;;0.80;0.80;;;;;10.20;99880.00;;;;5044440;28;20251;-69
2023/12/24 05:48:44;;;;;;;0.80;0.80;;;;;10.20;99870.00;;;;5044699;28;20389;-69
2023/12/24 05:51:30;;;;;;;0.80;0.80;;;;;10.20;99867.00;;;;5041240;28;20817;-69
2023/12/24 05:54:16;;;;;;;0.80;0.80;;;;;10.20;99873.00;;;;5043166;28;20919;-65
2023/12/24 05:57:03;;;;;;;0.80;0.80;;;;;10.20;99864.00;;;;5038325;28;20884;-68
2023/12/24 05:59:51;;;;;;;0.77;0.77;;;;;10.20;99858.00;;;;5042586;28;20236;-69
2023/12/24 06:02:37;;;;;;;0.87;0.83;;;;;10.20;99873.00;;;;5045665;28;20284;-70
2023/12/24 06:05:23;;;;;;;0.77;0.77;;;;;10.30;99864.00;;;;5043376;28;20225;-68
2023/12/24 06:08:10;;;;;;;0.70;0.70;;;;;10.30;99865.00;;;;5035149;28;20240;-69
2023/12/24 06:10:56;;;;;;;0.70;0.70;;;;;10.30;99864.00;;;;5041819;28;20236;-68
2023/12/24 06:13:43;;;;;;;1.13;0.80;;;;;10.30;99873.00;;;;5035558;28;20272;-71
2023/12/24 06:16:31;;;;;;;0.80;0.80;;;;;10.30;99854.00;;;;5040883;28;20232;-69
2023/12/24 06:19:17;;;;;;;0.83;0.80;;;;;10.30;99866.00;;;;5042916;28;20234;-68
2023/12/24 06:22:05;;;;;;;0.70;0.70;;;;;10.30;99851.00;;;;5048279;28;20236;-68
2023/12/24 06:24:51;;;;;;;0.80;0.80;;;;;10.20;99867.00;;;;5039643;28;20229;-69
2023/12/24 06:27:37;;;;;;;0.70;0.70;;;;;10.30;99866.00;;;;5042601;28;20787;-68
2023/12/24 06:30:24;;;;;;;0.77;0.77;;;;;10.30;99859.00;;;;5050888;28;20232;-69
2023/12/24 06:33:12;;;;;;;0.80;0.80;;;;;10.30;99856.00;;;;5037587;28;20233;-69
2023/12/24 06:35:58;;;;;;;0.70;0.70;;;;;10.40;99847.00;;;;5046474;28;20228;-70
2023/12/24 06:38:45;;;;;;;0.60;0.60;;;;;10.30;99845.00;;;;5047501;28;20363;-70
2023/12/24 06:41:32;;;;;;;0.77;0.77;;;;;10.30;99834.00;;;;5039753;28;20399;-68
2023/12/24 06:44:18;;;;;;;0.70;0.70;;;;;10.40;99850.00;;;;5041266;28;20905;-69
2023/12/24 06:47:05;;;;;;;0.80;0.80;;;;;10.30;99848.00;;;;5038425;28;20236;-69
2023/12/24 06:49:53;;;;;;;0.80;0.80;;;;;10.30;99843.00;;;;5041095;28;20240;-69
2023/12/24 06:52:39;;;;;;;2.70;0.90;;;;;10.30;99854.00;;;;5042690;28;20231;-68
2023/12/24 06:55:26;;;;;;;0.97;0.90;;;;;10.30;99851.00;;;;5038498;28;20268;-68
2023/12/24 06:58:12;;;;;;;0.90;0.90;;;;;10.30;99861.00;;;;5042976;28;20240;-69
2023/12/24 07:00:58;;;;;;;0.80;0.80;;;;;10.40;99864.00;;;;5043796;28;20232;-68
2023/12/24 07:03:45;;;;;;;0.80;0.80;;;;;10.40;99862.00;;;;5037002;28;20359;-68
2023/12/24 07:06:33;;;;;;;0.83;0.83;;;;;10.40;99843.00;;;;5040240;28;20802;-69
2023/12/24 07:09:19;;;;;;;0.90;0.90;;;;;10.40;99850.00;;;;5032764;28;20229;-66
2023/12/24 07:12:07;;;;;;;1.03;1.00;;;;;10.50;99845.00;;;;5036877;28;20237;-67
2023/12/24 07:14:53;;;;;;;2.33;1.10;;;;;10.30;99836.00;;;;5042020;28;20391;-69
2023/12/24 07:17:39;;;;;;;0.90;0.90;;;;;10.40;99851.00;;;;5031141;28;20236;-70
2023/12/24 07:20:26;;;;;;;1.00;0.90;;;;;10.40;99847.00;;;;5046962;28;20236;-71
2023/12/24 07:23:14;;;;;;;1.00;1.00;;;;;10.40;99846.00;;;;5042269;28;20248;-67
2023/12/24 07:26:00;;;;;;;0.90;0.90;;;;;10.40;99846.00;;;;5048460;28;20785;-67
2023/12/24 07:28:46;;;;;;;1.00;0.90;;;;;10.50;99845.00;;;;5037247;28;20236;-69
2023/12/24 07:31:33;;;;;;;1.10;1.03;;;;;10.50;99839.00;;;;5055668;28;20240;-70
2023/12/24 07:34:19;;;;;;;1.20;1.10;;;;;10.50;99850.00;;;;5046668;28;20257;-68
2023/12/24 07:37:07;;;;;;;1.20;1.10;;;;;10.50;99836.00;;;;5047872;28;20245;-73
2023/12/24 07:39:54;;;;;;;1.10;1.00;;;;;10.50;99838.00;;;;5045702;28;20278;-69
2023/12/24 07:42:41;;;;;;;1.07;1.00;;;;;10.40;99831.00;;;;5040696;28;20232;-70
2023/12/24 07:45:28;;;;;;;1.20;1.03;;;;;10.50;99842.00;;;;5046681;28;20232;-69
2023/12/24 07:48:14;;;;;;;0.80;0.80;;;;;10.50;99839.00;;;;5048202;28;20306;-71
2023/12/24 07:51:00;;;;;;;3.33;1.00;;;;;10.50;99828.00;;;;5045612;28;20228;-70
2023/12/24 07:53:47;;;;;;;1.20;1.10;;;;;10.50;99832.00;;;;5038697;28;20235;-72
2023/12/24 07:56:35;;;;;;;0.97;0.97;;;;;10.50;99837.00;;;;5046208;28;20220;-70
2023/12/24 07:59:21;;;;;;;1.03;1.00;;;;;10.50;99837.00;;;;5046189;28;20233;-70
2023/12/24 08:02:08;;;;;;;1.00;0.90;;;;;10.50;99832.00;;;;5046870;28;20240;-69
2023/12/24 08:04:55;;;;;;;0.83;0.83;;;;;10.50;99830.00;;;;5044910;28;20540;-70
2023/12/24 08:07:42;;;;;;;1.13;0.93;;;;;10.50;99834.00;;;;5043496;28;20237;-68
2023/12/24 08:10:28;;;;;;;1.13;1.03;;;;;10.50;99829.00;;;;5048340;28;20709;-69
2023/12/24 08:13:16;;;;;;;0.80;0.80;;;;;10.50;99827.00;;;;5044640;28;20356;-69
2023/12/24 08:16:03;;;;;;;1.00;1.00;;;;;10.60;99823.00;;;;5045061;28;20303;-70
2023/12/24 08:18:49;;;;;;;0.80;0.80;;;;;10.60;99826.00;;;;5035082;28;20306;-70
2023/12/24 08:21:35;;;;;;;0.93;0.93;;;;;10.60;99826.00;;;;5043500;28;20239;-71
2023/12/24 08:24:22;;;;;;;1.60;0.97;;;;;10.70;99820.00;;;;5039489;28;20266;-71
2023/12/24 08:27:08;;;;;;;0.90;0.90;;;;;10.80;99826.00;;;;5040564;28;20742;-70
2023/12/24 08:29:56;;;;;;;1.13;1.00;;;;;10.80;99830.00;;;;5039891;28;20225;-68
2023/12/24 08:32:43;;;;;;;1.00;0.90;;;;;10.80;99825.00;;;;5041379;28;20233;-71
2023/12/24 08:35:29;;;;;;;1.17;0.90;;;;;10.80;99829.00;;;;5033318;28;20354;-71
2023/12/24 08:38:15;;;;;;;1.63;0.80;;;;;10.90;99823.00;;;;5037043;28;20730;-70
2023/12/24 08:41:01;;;;;;;1.10;1.10;;;;;10.90;99818.00;;;;5040759;28;20233;-67
2023/12/24 08:43:48;;;;;;;1.27;1.20;;;;;10.80;99825.00;;;;5037953;28;20578;-71
2023/12/24 08:46:35;;;;;;;0.77;0.77;;;;;10.80;99829.00;;;;5041914;28;20272;-71
2023/12/24 08:49:22;;;;;;;0.93;0.93;;;;;10.90;99828.00;;;;5042692;28;20298;-68
2023/12/24 08:52:09;;;;;;;0.80;0.80;;;;;10.90;99833.00;;;;5037875;28;20307;-68
2023/12/24 08:54:55;;;;;;;0.90;0.90;;;;;10.90;99829.00;;;;5038809;28;20232;-71
2023/12/24 08:57:42;;;;;;;1.30;1.20;;;;;10.90;99821.00;;;;5041683;28;20237;-70
2023/12/24 09:00:28;;;;;;;1.03;1.00;;;;;11.00;99830.00;;;;5037666;28;20981;-71
2023/12/24 09:03:18;;;;;;;1.00;0.90;;;;;11.00;99828.00;;;;5038036;28;20382;-69
2023/12/24 09:06:05;;;;;;;1.00;1.00;;;;;10.90;99809.00;;;;5036066;28;20236;-69
2023/12/24 09:08:51;;;;;;;1.03;1.03;;;;;10.90;99819.00;;;;5036800;28;20303;-70
2023/12/24 09:11:37;;;;;;;1.03;1.00;;;;;10.90;99821.00;;;;5040805;28;20232;-69
2023/12/24 09:14:24;;;;;;;1.23;1.03;;;;;10.80;99817.00;;;;5035673;28;20664;-70
2023/12/24 09:17:10;;;;;;;1.13;1.03;;;;;10.90;99812.00;;;;5038477;28;20236;-70
2023/12/24 09:19:58;;;;;;;1.20;1.10;;;;;10.90;99827.00;;;;5042001;28;20705;-71
2023/12/24 09:22:46;;;;;;;1.30;1.20;;;;;10.80;99828.00;;;;5032247;28;20240;-69
2023/12/24 09:25:32;;;;;;;0.90;0.90;;;;;10.80;99826.00;;;;5040286;28;20836;-71
2023/12/24 09:28:19;;;;;;;1.10;1.10;;;;;10.90;99826.00;;;;5030774;28;20761;-70
2023/12/24 09:31:06;;;;;;;1.30;1.20;;;;;10.90;99829.00;;;;5036301;28;20233;-66
2023/12/24 09:33:52;;;;;;;1.00;1.00;;;;;10.90;99827.00;;;;5037847;28;20354;-69
2023/12/24 09:36:40;;;;;;;1.17;1.13;;;;;11.00;99826.00;;;;5044067;28;20371;-71
2023/12/24 09:39:26;;;;;;;1.10;1.10;;;;;10.90;99834.00;;;;5037049;28;20276;-69
2023/12/24 09:42:13;;;;;;;1.10;1.00;;;;;10.90;99847.00;;;;5036298;28;20256;-69
2023/12/24 09:44:59;;;;;;;0.90;0.90;;;;;11.00;99836.00;;;;5042213;28;20616;-68
2023/12/24 09:47:46;;;;;;;0.90;0.90;;;;;11.00;99830.00;;;;5041481;28;20229;-69
2023/12/24 09:50:32;;;;;;;1.00;1.00;;;;;11.00;99827.00;;;;5043146;28;20595;-71
2023/12/24 09:53:20;;;;;;;1.10;1.00;;;;;11.10;99820.00;;;;5036145;28;20764;-70
2023/12/24 09:56:07;;;;;;;0.70;0.70;;;;;11.00;99829.00;;;;5040737;28;20229;-69
2023/12/24 09:58:53;;;;;;;1.03;0.90;;;;;11.00;99821.00;;;;5036697;28;20252;-69
2023/12/24 10:01:45;;;;;;;0.93;0.93;;;;;11.00;99820.00;;;;5037496;28;20237;-70
2023/12/24 10:04:31;;;;;;;1.17;0.90;;;;;11.00;99818.00;;;;5035468;28;20749;-69
2023/12/24 10:07:18;;;;;;;1.00;1.00;;;;;11.00;99817.00;;;;5043174;28;20240;-71
2023/12/24 10:10:07;;;;;;;1.10;1.00;;;;;11.10;99811.00;;;;5042217;28;20228;-70
2023/12/24 10:13:04;;;;;;;0.90;0.90;;;;;11.10;99812.00;;;;5038079;28;20236;-70
2023/12/24 10:16:02;;;;;;;0.80;0.80;;;;;11.10;99790.00;;;;5035880;28;20308;-69
2023/12/24 10:18:50;;;;;;;0.90;0.90;;;;;11.00;99794.00;;;;5044149;28;20221;-68
2023/12/24 10:21:36;;;;;;;0.90;0.90;;;;;11.00;99788.00;;;;5042496;28;20349;-69
2023/12/24 10:24:23;;;;;;;0.90;0.90;;;;;11.00;99782.00;;;;5039895;28;20291;-70
2023/12/24 10:27:13;;;;;;;1.00;0.90;;;;;11.00;99788.00;;;;5039517;28;20229;-69
2023/12/24 10:30:12;;;;;;;0.70;0.70;;;;;11.10;99781.00;;;;5040146;28;21015;-69
2023/12/24 10:33:08;;;;;;;1.70;1.00;;;;;11.00;99784.00;;;;5031790;28;20279;-70
2023/12/24 10:35:57;;;;;;;0.80;0.80;;;;;11.10;99777.00;;;;5042009;28;20220;-68
2023/12/24 10:38:44;;;;;;;0.73;0.73;;;;;11.10;99766.00;;;;5042506;28;20244;-69
2023/12/24 10:41:30;;;;;;;0.87;0.87;;;;;11.10;99759.00;;;;5035756;28;20220;-71
2023/12/24 10:44:18;;;;;;;0.77;0.77;;;;;11.10;99775.00;;;;5037320;28;20312;-69
2023/12/24 10:47:05;;;;;;;0.53;0.53;;;;;11.20;99776.00;;;;5047211;28;20815;-70
2023/12/24 10:49:52;;;;;;;0.80;0.80;;;;;11.20;99752.00;;;;5045497;28;20236;-69
2023/12/24 10:52:39;;;;;;;1.20;1.10;;;;;11.10;99776.00;;;;5043799;28;20340;-71
2023/12/24 10:55:27;;;;;;;1.70;0.90;;;;;11.20;99772.00;;;;5046465;28;20235;-70
2023/12/24 10:58:21;;;;;;;1.00;1.00;;;;;11.10;99775.00;;;;5041018;28;20236;-70
2023/12/24 11:01:10;;;;;;;0.93;0.83;;;;;11.10;99782.00;;;;5043569;28;20332;-69
2023/12/24 11:03:57;;;;;;;1.17;1.00;;;;;11.20;99779.00;;;;5039731;28;20823;-72
2023/12/24 11:06:48;;;;;;;4.37;1.10;;;;;11.20;99791.00;;;;5038963;28;20742;-71
2023/12/24 11:09:44;;;;;;;0.93;0.93;;;;;11.20;99790.00;;;;5043609;28;20225;-70
2023/12/24 11:12:31;;;;;;;1.13;1.03;;;;;11.20;99778.00;;;;5052287;28;20232;-69
2023/12/24 11:15:44;;;;;;;1.20;1.10;;;;;11.20;99785.00;;;;5041947;28;20725;-68
2023/12/24 11:18:42;;;;;;;0.90;0.90;;;;;11.30;99776.00;;;;5049678;28;20237;-67
2023/12/24 11:21:29;;;;;;;1.00;1.00;;;;;11.20;99770.00;;;;5044242;28;20381;-69
2023/12/24 11:24:21;;;;;;;1.07;1.07;;;;;11.30;99785.00;;;;5049801;28;20228;-71
2023/12/24 11:27:09;;;;;;;1.60;1.10;;;;;11.30;99784.00;;;;5038892;28;20232;-71
2023/12/24 11:30:01;;;;;;;1.50;1.40;;;;;11.30;99783.00;;;;5041412;28;20278;-71
2023/12/24 11:32:49;;;;;;;1.20;1.10;;;;;11.30;99779.00;;;;5042718;28;20275;-71
2023/12/24 11:35:55;;;;;;;0.90;0.90;;;;;11.30;99773.00;;;;5043891;28;20586;-68
2023/12/24 11:38:42;;;;;;;1.03;1.03;;;;;11.30;99775.00;;;;5042577;28;20233;-71
2023/12/24 11:41:28;;;;;;;1.40;1.30;;;;;11.30;99778.00;;;;5042600;28;20604;-70
2023/12/24 11:44:15;;;;;;;1.13;1.10;;;;;11.30;99766.00;;;;5039058;28;20929;-68
2023/12/24 11:47:02;;;;;;;1.20;1.10;;;;;11.30;99763.00;;;;5040275;28;20306;-70
2023/12/24 11:49:51;;;;;;;1.20;1.10;;;;;11.40;99772.00;;;;5042795;28;20237;-72
2023/12/24 11:52:43;;;;;;;3.53;1.27;;;;;11.40;99762.00;;;;5045831;28;20327;-70
2023/12/24 11:55:29;;;;;;;1.10;1.00;;;;;11.40;99759.00;;;;5043636;28;20233;-71
2023/12/24 11:58:16;;;;;;;1.60;1.40;;;;;11.40;99754.00;;;;5042561;28;20642;-70
2023/12/24 12:01:03;;;;;;;1.23;1.13;;;;;11.40;99741.00;;;;5042119;28;20232;-72
2023/12/24 12:03:55;;;;;;;1.30;1.20;;;;;11.40;99744.00;;;;5038165;28;20239;-70
2023/12/24 12:06:42;;;;;;;1.40;1.30;;;;;11.40;99738.00;;;;5039871;28;20348;-70
2023/12/24 12:09:28;;;;;;;3.13;1.70;;;;;11.40;99742.00;;;;5042458;28;20302;-69
2023/12/24 12:12:15;;;;;;;1.70;1.60;;;;;11.40;99733.00;;;;5035544;28;20278;-70
2023/12/24 12:15:01;;;;;;;2.37;1.70;;;;;11.40;99713.00;;;;5042147;28;20592;-69
2023/12/24 12:17:49;;;;;;;1.80;1.70;;;;;11.40;99711.00;;;;5041472;28;20847;-71
2023/12/24 12:20:36;;;;;;;1.50;1.40;;;;;11.50;99707.00;;;;5046589;28;20233;-70
2023/12/24 12:23:23;;;;;;;1.93;1.47;;;;;11.50;99696.00;;;;5039595;28;20239;-70
2023/12/24 12:26:10;;;;;;;1.97;1.73;;;;;11.50;99695.00;;;;5048232;28;20227;-71
2023/12/24 12:28:56;;;;;;;1.60;1.43;;;;;11.50;99698.00;;;;5045089;28;20269;-71
2023/12/24 12:31:43;;;;;;;1.40;1.30;;;;;11.50;99708.00;;;;5044101;28;20231;-70
2023/12/24 12:34:29;;;;;;;3.43;1.90;;;;;11.60;99712.00;;;;5047827;28;20232;-67
2023/12/24 12:37:16;;;;;;;2.33;2.00;;;;;11.50;99705.00;;;;5038432;28;20270;-70
2023/12/24 12:40:04;;;;;;;2.50;1.97;;;;;11.60;99716.00;;;;5042742;28;20353;-70
2023/12/24 12:42:50;;;;;;;1.97;1.50;;;;;11.60;99693.00;;;;5041149;28;20241;-69
2023/12/24 12:45:36;;;;;;;2.47;2.00;;;;;11.50;99702.00;;;;5046379;28;20224;-70
2023/12/24 12:48:23;;;;;;;2.00;1.80;;;;;11.60;99699.00;;;;5040450;28;20946;-68
2023/12/24 12:51:10;;;;;;;1.97;1.77;;;;;11.60;99684.00;;;;5043336;28;20275;-71
2023/12/24 12:53:56;;;;;;;4.73;2.00;;;;;11.60;99677.00;;;;5045020;28;20232;-69
2023/12/24 12:56:45;;;;;;;2.17;1.97;;;;;11.70;99685.00;;;;5045712;28;20233;-69
2023/12/24 12:59:32;;;;;;;3.00;1.83;;;;;11.70;99667.00;;;;5045244;28;20299;-71
2023/12/24 13:02:25;;;;;;;4.27;1.80;;;;;11.80;99658.00;;;;5039647;28;20266;-70
2023/12/24 13:05:26;;;;;;;1.50;1.40;;;;;11.80;99649.00;;;;5038945;28;20879;-67
2023/12/24 13:08:14;;;;;;;2.03;1.30;;;;;11.80;99647.00;;;;5032980;28;20240;-70
2023/12/24 13:11:06;;;;;;;1.70;1.60;;;;;11.80;99661.00;;;;5043153;28;20335;-70
2023/12/24 13:14:05;;;;;;;1.93;1.50;;;;;11.80;99644.00;;;;5043107;28;20322;-70
2023/12/24 13:17:04;;;;;;;1.37;1.13;;;;;11.80;99652.00;;;;5035398;28;20224;-70
2023/12/24 13:19:53;;;;;;;1.20;1.10;;;;;11.80;99648.00;;;;5039988;28;20353;-71
2023/12/24 13:22:39;;;;;;;1.47;1.13;;;;;11.80;99648.00;;;;5045152;28;20236;-72
2023/12/24 13:25:30;;;;;;;2.93;1.20;;;;;11.80;99651.00;;;;5043222;28;20743;-72
2023/12/24 13:28:17;;;;;;;0.97;0.97;;;;;11.80;99647.00;;;;5036993;28;20275;-70
2023/12/24 13:31:05;;;;;;;1.20;1.07;;;;;11.80;99650.00;;;;5038353;28;20232;-70
2023/12/24 13:33:54;;;;;;;0.80;0.80;;;;;11.80;99642.00;;;;5036870;28;21045;-70
2023/12/24 13:36:40;;;;;;;1.23;1.10;;;;;11.70;99626.00;;;;5045064;28;20235;-73
2023/12/24 13:39:28;;;;;;;1.60;0.90;;;;;11.70;99621.00;;;;5037308;28;20228;-67
2023/12/24 13:42:14;;;;;;;1.17;1.10;;;;;11.80;99622.00;;;;5044037;28;20224;-71
2023/12/24 13:45:01;;;;;;;1.33;1.03;;;;;11.70;99609.00;;;;5036216;28;20241;-71
2023/12/24 13:47:49;;;;;;;0.90;0.90;;;;;11.70;99605.00;;;;5043793;28;20235;-73
2023/12/24 13:50:37;;;;;;;1.43;1.30;;;;;11.70;99616.00;;;;5045282;28;20310;-71
2023/12/24 13:53:24;;;;;;;2.73;1.37;;;;;11.70;99623.00;;;;5034544;28;20225;-71
2023/12/24 13:56:19;;;;;;;4.43;1.00;;;;;11.70;99616.00;;;;5041025;28;20310;-70